sensor_id;sensor_type;location;lat;lon;timestamp;pressure;altitude;pressure_sealevel;temperature;humidity
21730;BME280;11027;51.030;13.812;2022-11-12T00:00:50;101923.72;;;7.25;87.51
21730;BME280;11027;51.030;13.812;2022-11-12T00:03:15;101918.41;;;7.24;87.52
21730;BME280;11027;51.030;13.812;2022-11-12T00:05:41;101923.72;;;7.25;87.58
21730;BME280;11027;51.030;13.812;2022-11-12T00:08:06;101924.78;;;7.22;87.33
21730;BME280;11027;51.030;13.812;2022-11-12T00:10:31;101913.19;;;7.20;87.48
21730;BME280;11027;51.030;13.812;2022-11-12T00:12:58;101918.50;;;7.22;87.49
21730;BME280;11027;51.030;13.812;2022-11-12T00:15:23;101923.09;;;7.21;87.60
21730;BME280;11027;51.030;13.812;2022-11-12T00:17:50;101915.06;;;7.20;87.50
21730;BME280;11027;51.030;13.812;2022-11-12T00:20:15;101919.63;;;7.19;87.42
21730;BME280;11027;51.030;13.812;2022-11-12T00:22:41;101912.56;;;7.17;87.54
21730;BME280;11027;51.030;13.812;2022-11-12T00:25:06;101923.53;;;7.15;87.31
21730;BME280;11027;51.030;13.812;2022-11-12T00:27:32;101921.91;;;7.13;87.42
21730;BME280;11027;51.030;13.812;2022-11-12T00:29:58;101922.66;;;7.15;87.43
21730;BME280;11027;51.030;13.812;2022-11-12T00:32:23;101920.94;;;7.14;87.42
21730;BME280;11027;51.030;13.812;2022-11-12T00:34:48;101922.91;;;7.12;87.41
21730;BME280;11027;51.030;13.812;2022-11-12T00:37:14;101915.97;;;7.08;87.58
21730;BME280;11027;51.030;13.812;2022-11-12T00:39:40;101922.50;;;7.05;87.98
21730;BME280;11027;51.030;13.812;2022-11-12T00:42:06;101923.72;;;7.01;88.19
21730;BME280;11027;51.030;13.812;2022-11-12T00:44:31;101914.69;;;7.00;88.54
21730;BME280;11027;51.030;13.812;2022-11-12T00:46:56;101919.38;;;6.98;88.63
21730;BME280;11027;51.030;13.812;2022-11-12T00:49:22;101909.28;;;7.00;88.78
21730;BME280;11027;51.030;13.812;2022-11-12T00:51:47;101911.25;;;6.98;88.84
21730;BME280;11027;51.030;13.812;2022-11-12T00:54:13;101913.94;;;6.98;88.44
21730;BME280;11027;51.030;13.812;2022-11-12T00:56:39;101913.75;;;7.01;88.50
21730;BME280;11027;51.030;13.812;2022-11-12T00:59:04;101921.75;;;7.03;88.54
21730;BME280;11027;51.030;13.812;2022-11-12T01:01:30;101923.81;;;6.99;88.31
21730;BME280;11027;51.030;13.812;2022-11-12T01:03:57;101926.00;;;6.94;88.42
21730;BME280;11027;51.030;13.812;2022-11-12T01:06:22;101922.31;;;6.95;88.55
21730;BME280;11027;51.030;13.812;2022-11-12T01:08:48;101926.00;;;6.94;88.68
21730;BME280;11027;51.030;13.812;2022-11-12T01:11:19;101923.53;;;6.91;88.77
21730;BME280;11027;51.030;13.812;2022-11-12T01:13:47;101919.09;;;6.90;89.12
21730;BME280;11027;51.030;13.812;2022-11-12T01:16:19;101926.00;;;6.94;89.03
21730;BME280;11027;51.030;13.812;2022-11-12T01:18:45;101927.75;;;6.95;88.80
21730;BME280;11027;51.030;13.812;2022-11-12T01:21:12;101918.75;;;6.95;88.71
21730;BME280;11027;51.030;13.812;2022-11-12T01:23:39;101915.16;;;6.94;88.60
21730;BME280;11027;51.030;13.812;2022-11-12T01:26:09;101917.13;;;6.92;88.57
21730;BME280;11027;51.030;13.812;2022-11-12T01:28:35;101918.00;;;6.93;88.35
21730;BME280;11027;51.030;13.812;2022-11-12T01:33:42;101922.53;;;6.92;88.37
21730;BME280;11027;51.030;13.812;2022-11-12T01:36:08;101913.66;;;6.90;88.37
21730;BME280;11027;51.030;13.812;2022-11-12T01:38:38;101917.13;;;6.92;88.33
21730;BME280;11027;51.030;13.812;2022-11-12T01:41:05;101919.72;;;6.94;88.11
21730;BME280;11027;51.030;13.812;2022-11-12T01:43:31;101915.16;;;6.94;88.35
21730;BME280;11027;51.030;13.812;2022-11-12T01:45:56;101910.63;;;6.95;88.20
21730;BME280;11027;51.030;13.812;2022-11-12T01:48:54;101914.09;;;6.97;88.22
21730;BME280;11027;51.030;13.812;2022-11-12T01:51:26;101913.34;;;6.95;88.33
21730;BME280;11027;51.030;13.812;2022-11-12T01:53:57;101906.28;;;6.92;88.37
21730;BME280;11027;51.030;13.812;2022-11-12T01:56:26;101913.66;;;6.90;88.37
21730;BME280;11027;51.030;13.812;2022-11-12T01:58:56;101910.94;;;6.90;88.32
21730;BME280;11027;51.030;13.812;2022-11-12T02:01:24;101914.41;;;6.92;88.42
21730;BME280;11027;51.030;13.812;2022-11-12T02:03:49;101912.69;;;6.91;88.38
21730;BME280;11027;51.030;13.812;2022-11-12T02:06:15;101911.69;;;6.92;88.15
21730;BME280;11027;51.030;13.812;2022-11-12T02:08:42;101914.31;;;6.94;88.25
21730;BME280;11027;51.030;13.812;2022-11-12T02:11:19;101910.75;;;6.93;88.20
21730;BME280;11027;51.030;13.812;2022-11-12T02:13:46;101908.03;;;6.93;88.23
21730;BME280;11027;51.030;13.812;2022-11-12T02:18:56;101902.81;;;6.90;88.36
21730;BME280;11027;51.030;13.812;2022-11-12T02:21:23;101911.19;;;6.87;88.42
21730;BME280;11027;51.030;13.812;2022-11-12T02:23:57;101905.03;;;6.85;88.53
21730;BME280;11027;51.030;13.812;2022-11-12T02:26:22;101905.25;;;6.82;88.68
21730;BME280;11027;51.030;13.812;2022-11-12T02:28:47;101903.75;;;6.78;88.90
21730;BME280;11027;51.030;13.812;2022-11-12T02:31:13;101899.41;;;6.75;89.09
21730;BME280;11027;51.030;13.812;2022-11-12T02:33:38;101902.13;;;6.75;89.13
21730;BME280;11027;51.030;13.812;2022-11-12T02:36:03;101907.66;;;6.74;89.29
21730;BME280;11027;51.030;13.812;2022-11-12T02:38:29;101906.78;;;6.73;89.61
21730;BME280;11027;51.030;13.812;2022-11-12T02:40:54;101901.28;;;6.75;89.49
21730;BME280;11027;51.030;13.812;2022-11-12T02:43:19;101900.06;;;6.79;89.34
21730;BME280;11027;51.030;13.812;2022-11-12T02:45:45;101905.47;;;6.79;89.21
21730;BME280;11027;51.030;13.812;2022-11-12T02:48:10;101916.78;;;6.73;89.24
21730;BME280;11027;51.030;13.812;2022-11-12T02:50:35;101907.25;;;6.67;89.58
21730;BME280;11027;51.030;13.812;2022-11-12T02:53:00;101910.31;;;6.63;90.11
21730;BME280;11027;51.030;13.812;2022-11-12T02:55:26;101919.38;;;6.61;90.10
21730;BME280;11027;51.030;13.812;2022-11-12T02:57:56;101915.81;;;6.61;90.43
21730;BME280;11027;51.030;13.812;2022-11-12T03:00:21;101915.94;;;6.59;90.46
21730;BME280;11027;51.030;13.812;2022-11-12T03:02:47;101923.31;;;6.57;90.72
21730;BME280;11027;51.030;13.812;2022-11-12T03:05:23;101920.81;;;6.54;90.82
21730;BME280;11027;51.030;13.812;2022-11-12T03:07:49;101918.97;;;6.55;90.92
21730;BME280;11027;51.030;13.812;2022-11-12T03:10:14;101922.66;;;6.54;91.06
21730;BME280;11027;51.030;13.812;2022-11-12T03:12:39;101917.47;;;6.51;91.19
21730;BME280;11027;51.030;13.812;2022-11-12T03:15:05;101918.44;;;6.50;91.26
21730;BME280;11027;51.030;13.812;2022-11-12T03:17:30;101913.13;;;6.48;91.38
21730;BME280;11027;51.030;13.812;2022-11-12T03:19:57;101914.97;;;6.48;91.42
21730;BME280;11027;51.030;13.812;2022-11-12T03:22:23;101915.97;;;6.47;91.43
21730;BME280;11027;51.030;13.812;2022-11-12T03:24:48;101916.81;;;6.47;91.44
21730;BME280;11027;51.030;13.812;2022-11-12T03:27:14;101918.78;;;6.45;91.38
21730;BME280;11027;51.030;13.812;2022-11-12T03:29:39;101914.31;;;6.44;91.47
21730;BME280;11027;51.030;13.812;2022-11-12T03:32:04;101908.91;;;6.44;91.48
21730;BME280;11027;51.030;13.812;2022-11-12T03:34:29;101909.66;;;6.46;91.40
21730;BME280;11027;51.030;13.812;2022-11-12T03:36:54;101917.78;;;6.46;91.37
21730;BME280;11027;51.030;13.812;2022-11-12T03:39:20;101923.84;;;6.50;91.03
21730;BME280;11027;51.030;13.812;2022-11-12T03:41:45;101925.47;;;6.52;90.76
21730;BME280;11027;51.030;13.812;2022-11-12T03:44:10;101925.25;;;6.55;90.36
21730;BME280;11027;51.030;13.812;2022-11-12T03:46:35;101930.69;;;6.55;90.15
21730;BME280;11027;51.030;13.812;2022-11-12T03:49:01;101925.47;;;6.52;89.95
21730;BME280;11027;51.030;13.812;2022-11-12T03:51:26;101927.41;;;6.50;89.83
21730;BME280;11027;51.030;13.812;2022-11-12T03:53:52;101927.00;;;6.44;89.73
21730;BME280;11027;51.030;13.812;2022-11-12T03:56:17;101925.50;;;6.39;89.75
21730;BME280;11027;51.030;13.812;2022-11-12T03:58:42;101924.63;;;6.39;89.72
21730;BME280;11027;51.030;13.812;2022-11-12T04:01:07;101922.78;;;6.39;89.31
21730;BME280;11027;51.030;13.812;2022-11-12T04:03:33;101923.13;;;6.35;89.67
21730;BME280;11027;51.030;13.812;2022-11-12T04:05:58;101917.06;;;6.31;89.53
21730;BME280;11027;51.030;13.812;2022-11-12T04:08:42;101921.63;;;6.31;89.62
21730;BME280;11027;51.030;13.812;2022-11-12T04:11:10;101914.47;;;6.30;89.50
21730;BME280;11027;51.030;13.812;2022-11-12T04:13:40;101917.16;;;6.30;89.47
21730;BME280;11027;51.030;13.812;2022-11-12T04:16:12;101922.72;;;6.28;89.25
21730;BME280;11027;51.030;13.812;2022-11-12T04:18:58;101920.13;;;6.27;89.37
21730;BME280;11027;51.030;13.812;2022-11-12T04:21:44;101931.69;;;6.29;89.13
21730;BME280;11027;51.030;13.812;2022-11-12T04:24:39;101925.28;;;6.30;88.96
21730;BME280;11027;51.030;13.812;2022-11-12T04:27:29;101925.53;;;6.27;88.96
21730;BME280;11027;51.030;13.812;2022-11-12T04:29:54;101925.72;;;6.24;88.88
21730;BME280;11027;51.030;13.812;2022-11-12T04:32:52;101929.63;;;6.19;89.02
21730;BME280;11027;51.030;13.812;2022-11-12T04:35:24;101919.91;;;6.17;89.10
21730;BME280;11027;51.030;13.812;2022-11-12T04:37:49;101923.56;;;6.16;89.04
21730;BME280;11027;51.030;13.812;2022-11-12T04:40:16;101921.00;;;6.14;88.96
21730;BME280;11027;51.030;13.812;2022-11-12T04:43:01;101928.13;;;6.15;89.10
21730;BME280;11027;51.030;13.812;2022-11-12T04:45:48;101930.06;;;6.13;88.88
21730;BME280;11027;51.030;13.812;2022-11-12T04:48:14;101928.56;;;6.09;88.86
21730;BME280;11027;51.030;13.812;2022-11-12T04:50:41;101926.09;;;6.06;89.16
21730;BME280;11027;51.030;13.812;2022-11-12T04:53:07;101928.13;;;6.03;89.34
21730;BME280;11027;51.030;13.812;2022-11-12T04:55:33;101925.75;;;5.98;89.59
21730;BME280;11027;51.030;13.812;2022-11-12T04:57:58;101931.16;;;5.98;89.94
21730;BME280;11027;51.030;13.812;2022-11-12T05:00:24;101934.84;;;5.97;90.20
21730;BME280;11027;51.030;13.812;2022-11-12T05:02:49;101939.50;;;5.95;90.45
21730;BME280;11027;51.030;13.812;2022-11-12T05:05:15;101938.59;;;5.94;90.49
21730;BME280;11027;51.030;13.812;2022-11-12T05:07:40;101940.44;;;5.94;90.80
21730;BME280;11027;51.030;13.812;2022-11-12T05:10:06;101940.03;;;6.00;90.91
21730;BME280;11027;51.030;13.812;2022-11-12T05:12:31;101938.09;;;6.02;90.57
21730;BME280;11027;51.030;13.812;2022-11-12T05:14:57;101941.56;;;6.04;90.46
21730;BME280;11027;51.030;13.812;2022-11-12T05:17:22;101940.56;;;6.05;90.40
21730;BME280;11027;51.030;13.812;2022-11-12T05:19:47;101946.75;;;6.07;90.40
21730;BME280;11027;51.030;13.812;2022-11-12T05:22:12;101951.94;;;6.10;90.44
21730;BME280;11027;51.030;13.812;2022-11-12T05:24:40;101947.28;;;6.12;90.45
21730;BME280;11027;51.030;13.812;2022-11-12T05:27:09;101944.34;;;6.15;90.47
21730;BME280;11027;51.030;13.812;2022-11-12T05:29:35;101949.56;;;6.18;90.48
21730;BME280;11027;51.030;13.812;2022-11-12T05:32:01;101958.44;;;6.20;90.43
21730;BME280;11027;51.030;13.812;2022-11-12T05:34:26;101955.59;;;6.22;90.38
21730;BME280;11027;51.030;13.812;2022-11-12T05:36:51;101955.50;;;6.24;90.56
21730;BME280;11027;51.030;13.812;2022-11-12T05:39:17;101950.84;;;6.26;90.66
21730;BME280;11027;51.030;13.812;2022-11-12T05:41:42;101958.00;;;6.27;90.68
21730;BME280;11027;51.030;13.812;2022-11-12T05:44:08;101957.91;;;6.28;90.74
21730;BME280;11027;51.030;13.812;2022-11-12T05:46:34;101954.22;;;6.29;90.71
21730;BME280;11027;51.030;13.812;2022-11-12T05:48:59;101960.81;;;6.25;90.93
21730;BME280;11027;51.030;13.812;2022-11-12T05:51:24;101963.53;;;6.25;90.99
21730;BME280;11027;51.030;13.812;2022-11-12T05:53:49;101963.53;;;6.25;91.04
21730;BME280;11027;51.030;13.812;2022-11-12T05:56:15;101961.66;;;6.26;91.28
21730;BME280;11027;51.030;13.812;2022-11-12T05:58:40;101959.72;;;6.28;91.21
21730;BME280;11027;51.030;13.812;2022-11-12T06:01:05;101968.06;;;6.25;91.15
21730;BME280;11027;51.030;13.812;2022-11-12T06:03:31;101968.84;;;6.27;91.14
21730;BME280;11027;51.030;13.812;2022-11-12T06:05:56;101961.66;;;6.26;90.95
21730;BME280;11027;51.030;13.812;2022-11-12T06:08:21;101968.06;;;6.25;91.05
21730;BME280;11027;51.030;13.812;2022-11-12T06:10:48;101968.28;;;6.21;90.88
21730;BME280;11027;51.030;13.812;2022-11-12T06:13:13;101971.22;;;6.18;90.92
21730;BME280;11027;51.030;13.812;2022-11-12T06:15:39;101973.16;;;6.16;91.07
21730;BME280;11027;51.030;13.812;2022-11-12T06:18:04;101970.56;;;6.15;91.07
21730;BME280;11027;51.030;13.812;2022-11-12T06:20:29;101971.41;;;6.15;91.10
21730;BME280;11027;51.030;13.812;2022-11-12T06:22:55;101975.13;;;6.14;91.23
21730;BME280;11027;51.030;13.812;2022-11-12T06:25:21;101980.72;;;6.11;91.22
21730;BME280;11027;51.030;13.812;2022-11-12T06:27:47;101984.44;;;6.10;91.26
21730;BME280;11027;51.030;13.812;2022-11-12T06:30:12;101978.88;;;6.12;91.33
21730;BME280;11027;51.030;13.812;2022-11-12T06:32:37;101976.19;;;6.12;91.24
21730;BME280;11027;51.030;13.812;2022-11-12T06:35:03;101973.47;;;6.12;91.27
21730;BME280;11027;51.030;13.812;2022-11-12T06:37:28;101976.31;;;6.10;91.09
21730;BME280;11027;51.030;13.812;2022-11-12T06:39:53;101975.31;;;6.11;91.18
21730;BME280;11027;51.030;13.812;2022-11-12T06:42:19;101980.53;;;6.14;91.22
21730;BME280;11027;51.030;13.812;2022-11-12T06:44:44;101977.50;;;6.19;91.15
21730;BME280;11027;51.030;13.812;2022-11-12T06:47:09;101979.09;;;6.21;91.14
21730;BME280;11027;51.030;13.812;2022-11-12T06:49:35;101988.22;;;6.20;90.99
21730;BME280;11027;51.030;13.812;2022-11-12T06:52:01;101988.31;;;6.19;90.99
21730;BME280;11027;51.030;13.812;2022-11-12T06:54:26;101986.56;;;6.18;90.93
21730;BME280;11027;51.030;13.812;2022-11-12T06:56:51;101989.41;;;6.16;90.84
21730;BME280;11027;51.030;13.812;2022-11-12T06:59:17;101992.75;;;6.20;90.77
21730;BME280;11027;51.030;13.812;2022-11-12T07:01:42;101992.63;;;6.21;90.79
21730;BME280;11027;51.030;13.812;2022-11-12T07:04:07;102000.88;;;6.20;90.60
21730;BME280;11027;51.030;13.812;2022-11-12T07:06:33;101994.16;;;6.26;90.36
21730;BME280;11027;51.030;13.812;2022-11-12T07:08:58;101991.78;;;6.34;90.18
21730;BME280;11027;51.030;13.812;2022-11-12T07:11:24;101990.91;;;6.33;89.89
21730;BME280;11027;51.030;13.812;2022-11-12T07:13:49;101995.47;;;6.33;89.76
21730;BME280;11027;51.030;13.812;2022-11-12T07:16:14;101996.34;;;6.33;89.66
21730;BME280;11027;51.030;13.812;2022-11-12T07:18:43;101997.41;;;6.31;89.57
21730;BME280;11027;51.030;13.812;2022-11-12T07:21:12;101999.38;;;6.29;89.41
21730;BME280;11027;51.030;13.812;2022-11-12T07:23:37;101997.63;;;6.28;89.46
21730;BME280;11027;51.030;13.812;2022-11-12T07:26:05;101993.97;;;6.29;89.51
21730;BME280;11027;51.030;13.812;2022-11-12T07:28:31;101991.69;;;6.23;89.23
21730;BME280;11027;51.030;13.812;2022-11-12T07:30:59;101992.44;;;6.25;89.43
21730;BME280;11027;51.030;13.812;2022-11-12T07:33:25;101992.44;;;6.25;89.31
21730;BME280;11027;51.030;13.812;2022-11-12T07:36:05;101997.00;;;6.24;88.97
21730;BME280;11027;51.030;13.812;2022-11-12T07:38:34;101996.22;;;6.22;88.71
21730;BME280;11027;51.030;13.812;2022-11-12T07:41:02;102000.00;;;6.19;89.02
21730;BME280;11027;51.030;13.812;2022-11-12T07:43:32;101998.06;;;6.21;88.97
21730;BME280;11027;51.030;13.812;2022-11-12T07:46:03;102003.28;;;6.25;88.96
21730;BME280;11027;51.030;13.812;2022-11-12T07:48:29;101995.03;;;6.26;88.90
21730;BME280;11027;51.030;13.812;2022-11-12T07:51:02;102003.94;;;6.28;88.84
21730;BME280;11027;51.030;13.812;2022-11-12T07:53:28;102002.84;;;6.31;88.79
21730;BME280;11027;51.030;13.812;2022-11-12T07:55:59;102001.75;;;6.33;88.60
21730;BME280;11027;51.030;13.812;2022-11-12T07:58:26;101998.28;;;6.31;88.42
21730;BME280;11027;51.030;13.812;2022-11-12T08:00:52;101990.06;;;6.33;88.27
21730;BME280;11027;51.030;13.812;2022-11-12T08:03:18;101991.91;;;6.32;88.24
21730;BME280;11027;51.030;13.812;2022-11-12T08:05:44;101986.50;;;6.32;88.21
21730;BME280;11027;51.030;13.812;2022-11-12T08:08:09;101986.34;;;6.34;88.13
21730;BME280;11027;51.030;13.812;2022-11-12T08:10:35;101990.06;;;6.33;88.06
21730;BME280;11027;51.030;13.812;2022-11-12T08:13:01;101992.97;;;6.30;88.21
21730;BME280;11027;51.030;13.812;2022-11-12T08:15:26;101990.50;;;6.27;88.31
21730;BME280;11027;51.030;13.812;2022-11-12T08:17:51;101985.06;;;6.27;88.91
21730;BME280;11027;51.030;13.812;2022-11-12T08:20:16;101981.63;;;6.25;88.73
21730;BME280;11027;51.030;13.812;2022-11-12T08:22:42;101985.06;;;6.27;88.93
21730;BME280;11027;51.030;13.812;2022-11-12T08:25:07;101986.16;;;6.24;88.95
21730;BME280;11027;51.030;13.812;2022-11-12T08:27:33;101987.03;;;6.25;89.01
21730;BME280;11027;51.030;13.812;2022-11-12T08:29:58;101985.06;;;6.27;88.94
21730;BME280;11027;51.030;13.812;2022-11-12T08:32:24;101985.19;;;6.25;89.20
21730;BME280;11027;51.030;13.812;2022-11-12T08:34:49;101988.53;;;6.29;89.36
21730;BME280;11027;51.030;13.812;2022-11-12T08:37:14;101983.66;;;6.34;89.38
21730;BME280;11027;51.030;13.812;2022-11-12T08:39:40;101990.81;;;6.35;89.39
21730;BME280;11027;51.030;13.812;2022-11-12T08:42:05;101985.31;;;6.36;89.52
21730;BME280;11027;51.030;13.812;2022-11-12T08:44:30;101982.47;;;6.38;89.59
21730;BME280;11027;51.030;13.812;2022-11-12T08:46:56;101986.81;;;6.40;89.91
21730;BME280;11027;51.030;13.812;2022-11-12T08:49:21;101985.72;;;6.43;89.92
21730;BME280;11027;51.030;13.812;2022-11-12T08:51:46;101988.94;;;6.48;90.18
21730;BME280;11027;51.030;13.812;2022-11-12T08:54:11;101984.19;;;6.52;90.31
21730;BME280;11027;51.030;13.812;2022-11-12T08:56:37;101982.88;;;6.57;90.26
21730;BME280;11027;51.030;13.812;2022-11-12T08:59:03;101991.56;;;6.63;90.47
21730;BME280;11027;51.030;13.812;2022-11-12T09:01:29;101991.13;;;6.69;90.46
21730;BME280;11027;51.030;13.812;2022-11-12T09:03:54;101989.91;;;6.73;90.40
21730;BME280;11027;51.030;13.812;2022-11-12T09:06:19;101990.44;;;6.78;90.31
21730;BME280;11027;51.030;13.812;2022-11-12T09:08:44;102000.81;;;6.84;90.16
21730;BME280;11027;51.030;13.812;2022-11-12T09:11:10;101992.47;;;6.87;89.83
21730;BME280;11027;51.030;13.812;2022-11-12T09:13:35;101990.28;;;6.92;89.72
21730;BME280;11027;51.030;13.812;2022-11-12T09:16:05;101985.63;;;6.94;89.57
21730;BME280;11027;51.030;13.812;2022-11-12T09:18:32;101989.97;;;6.97;89.54
21730;BME280;11027;51.030;13.812;2022-11-12T09:23:27;101983.22;;;7.03;89.33
21730;BME280;11027;51.030;13.812;2022-11-12T09:25:54;101983.97;;;7.05;89.28
21730;BME280;11027;51.030;13.812;2022-11-12T09:28:19;101982.88;;;7.07;89.14
21730;BME280;11027;51.030;13.812;2022-11-12T09:30:47;101980.78;;;7.11;89.02
21730;BME280;11027;51.030;13.812;2022-11-12T09:33:17;101980.56;;;7.14;88.84
21730;BME280;11027;51.030;13.812;2022-11-12T09:35:43;101984.03;;;7.16;88.46
21730;BME280;11027;51.030;13.812;2022-11-12T09:38:09;101978.38;;;7.19;88.46
21730;BME280;11027;51.030;13.812;2022-11-12T09:43:27;101984.22;;;7.26;87.78
21730;BME280;11027;51.030;13.812;2022-11-12T09:45:56;101972.81;;;7.33;87.65
21730;BME280;11027;51.030;13.812;2022-11-12T09:48:30;101977.78;;;7.39;87.38
21730;BME280;11027;51.030;13.812;2022-11-12T09:51:03;101976.78;;;7.40;86.91
21730;BME280;11027;51.030;13.812;2022-11-12T09:53:53;101966.69;;;7.43;86.90
21730;BME280;11027;51.030;13.812;2022-11-12T09:56:20;101970.03;;;7.46;86.90
21730;BME280;11027;51.030;13.812;2022-11-12T09:58:46;101966.00;;;7.52;86.90
21730;BME280;11027;51.030;13.812;2022-11-12T10:06:56;101977.13;;;7.60;86.58
21730;BME280;11027;51.030;13.812;2022-11-12T10:09:40;101972.56;;;7.60;86.60
21730;BME280;11027;51.030;13.812;2022-11-12T10:12:22;101979.47;;;7.65;86.66
21730;BME280;11027;51.030;13.812;2022-11-12T10:15:16;101974.44;;;7.71;86.59
21730;BME280;11027;51.030;13.812;2022-11-12T10:18:19;101971.25;;;7.77;86.71
21730;BME280;11027;51.030;13.812;2022-11-12T10:23:42;101974.13;;;7.87;86.56
21730;BME280;11027;51.030;13.812;2022-11-12T10:26:15;101965.63;;;7.92;86.58
21730;BME280;11027;51.030;13.812;2022-11-12T10:29:27;101965.38;;;7.95;86.52
21730;BME280;11027;51.030;13.812;2022-11-12T10:31:26;101961.44;;;7.99;86.56
21730;BME280;11027;51.030;13.812;2022-11-12T10:34:01;101959.25;;;8.04;86.44
21730;BME280;11027;51.030;13.812;2022-11-12T10:36:34;101956.78;;;8.12;86.31
21730;BME280;11027;51.030;13.812;2022-11-12T10:39:00;101949.88;;;8.19;86.50
21730;BME280;11027;51.030;13.812;2022-11-12T10:41:28;101942.13;;;8.26;86.36
21730;BME280;11027;51.030;13.812;2022-11-12T10:44:03;101951.59;;;8.32;86.19
21730;BME280;11027;51.030;13.812;2022-11-12T10:46:34;101942.22;;;8.36;86.12
21730;BME280;11027;51.030;13.812;2022-11-12T10:49:05;101947.19;;;8.42;86.00
21730;BME280;11027;51.030;13.812;2022-11-12T10:51:34;101949.41;;;8.48;86.19
21730;BME280;11027;51.030;13.812;2022-11-12T10:56:51;101950.06;;;8.63;85.80
21730;BME280;11027;51.030;13.812;2022-11-12T10:59:19;101951.41;;;8.69;85.84
21730;BME280;11027;51.030;13.812;2022-11-12T11:01:45;101953.63;;;8.75;85.63
21730;BME280;11027;51.030;13.812;2022-11-12T11:06:59;101941.75;;;8.87;85.39
21730;BME280;11027;51.030;13.812;2022-11-12T11:09:26;101948.16;;;8.97;85.32
21730;BME280;11027;51.030;13.812;2022-11-12T11:11:52;101951.94;;;9.06;85.14
21730;BME280;11027;51.030;13.812;2022-11-12T11:16:53;101938.94;;;9.21;84.81
21730;BME280;11027;51.030;13.812;2022-11-12T11:19:19;101941.00;;;9.29;84.60
21730;BME280;11027;51.030;13.812;2022-11-12T11:27:02;101942.25;;;9.57;83.24
21730;BME280;11027;51.030;13.812;2022-11-12T11:35:03;101937.88;;;9.87;81.91
21730;BME280;11027;51.030;13.812;2022-11-12T11:37:45;101930.66;;;9.97;81.19
21730;BME280;11027;51.030;13.812;2022-11-12T11:40:50;101925.88;;;10.10;80.40
21730;BME280;11027;51.030;13.812;2022-11-12T11:43:28;101926.50;;;10.24;80.38
21730;BME280;11027;51.030;13.812;2022-11-12T11:49:17;101919.03;;;10.47;78.77
21730;BME280;11027;51.030;13.812;2022-11-12T11:51:53;101913.34;;;10.59;78.30
21730;BME280;11027;51.030;13.812;2022-11-12T11:54:31;101909.81;;;10.69;78.31
21730;BME280;11027;51.030;13.812;2022-11-12T11:57:01;101916.88;;;10.81;78.08
21730;BME280;11027;51.030;13.812;2022-11-12T12:08:13;101895.84;;;11.41;77.10
21730;BME280;11027;51.030;13.812;2022-11-12T12:13:46;101880.84;;;11.65;75.45
21730;BME280;11027;51.030;13.812;2022-11-12T12:16:23;101876.22;;;11.75;74.82
21730;BME280;11027;51.030;13.812;2022-11-12T12:21:44;101874.22;;;11.97;73.74
21730;BME280;11027;51.030;13.812;2022-11-12T12:26:57;101864.94;;;12.17;72.35
21730;BME280;11027;51.030;13.812;2022-11-12T12:29:36;101869.38;;;12.28;72.22
21730;BME280;11027;51.030;13.812;2022-11-12T12:32:13;101865.09;;;12.44;71.60
21730;BME280;11027;51.030;13.812;2022-11-12T12:34:44;101863.03;;;12.55;70.93
21730;BME280;11027;51.030;13.812;2022-11-12T12:37:23;101860.09;;;12.67;69.71
21730;BME280;11027;51.030;13.812;2022-11-12T12:39:57;101859.16;;;12.76;69.53
21730;BME280;11027;51.030;13.812;2022-11-12T12:42:41;101861.13;;;12.84;68.41
21730;BME280;11027;51.030;13.812;2022-11-12T12:45:35;101858.63;;;12.90;68.12
21730;BME280;11027;51.030;13.812;2022-11-12T12:48:05;101855.28;;;12.96;67.88
21730;BME280;11027;51.030;13.812;2022-11-12T12:50:34;101855.34;;;13.05;67.74
21730;BME280;11027;51.030;13.812;2022-11-12T12:53:15;101853.72;;;13.12;67.24
21730;BME280;11027;51.030;13.812;2022-11-12T12:55:49;101851.63;;;13.24;67.40
21730;BME280;11027;51.030;13.812;2022-11-12T12:58:24;101855.31;;;13.32;66.30
21730;BME280;11027;51.030;13.812;2022-11-12T13:06:37;101837.72;;;13.61;63.68
21730;BME280;11027;51.030;13.812;2022-11-12T13:09:21;101845.69;;;13.72;63.39
21730;BME280;11027;51.030;13.812;2022-11-12T13:16:59;101844.50;;;14.01;62.38
21730;BME280;11027;51.030;13.812;2022-11-12T13:19:26;101842.53;;;14.19;61.64
21730;BME280;11027;51.030;13.812;2022-11-12T13:37:56;101827.53;;;16.45;55.25
21730;BME280;11027;51.030;13.812;2022-11-12T13:49:02;101820.28;;;17.15;53.61
21730;BME280;11027;51.030;13.812;2022-11-12T13:53:56;101804.53;;;17.62;52.27
21730;BME280;11027;51.030;13.812;2022-11-12T13:56:30;101807.44;;;17.83;51.28
21730;BME280;11027;51.030;13.812;2022-11-12T13:59:13;101813.81;;;18.13;50.20
21730;BME280;11027;51.030;13.812;2022-11-12T14:01:39;101806.84;;;18.47;49.57
21730;BME280;11027;51.030;13.812;2022-11-12T14:04:06;101808.13;;;18.81;48.66
21730;BME280;11027;51.030;13.812;2022-11-12T14:06:36;101802.16;;;18.99;47.39
21730;BME280;11027;51.030;13.812;2022-11-12T14:09:12;101810.34;;;18.92;46.78
21730;BME280;11027;51.030;13.812;2022-11-12T14:20:19;101801.47;;;17.56;47.50
21730;BME280;11027;51.030;13.812;2022-11-12T14:22:49;101801.44;;;17.04;48.78
21730;BME280;11027;51.030;13.812;2022-11-12T14:25:22;101816.16;;;16.56;49.92
21730;BME280;11027;51.030;13.812;2022-11-12T14:27:50;101808.78;;;16.09;50.93
21730;BME280;11027;51.030;13.812;2022-11-12T14:30:23;101806.13;;;15.68;51.81
21730;BME280;11027;51.030;13.812;2022-11-12T14:32:52;101796.72;;;15.30;52.75
21730;BME280;11027;51.030;13.812;2022-11-12T14:38:16;101799.03;;;14.59;54.24
21730;BME280;11027;51.030;13.812;2022-11-12T14:41:06;101803.50;;;14.26;55.16
21730;BME280;11027;51.030;13.812;2022-11-12T14:43:36;101799.28;;;13.97;55.74